createdAt,value
2023-05-08T00:01:54.911Z,97050.91
2023-05-08T00:06:47.370Z,97043.47
2023-05-08T00:11:39.193Z,97038.75
2023-05-08T00:16:31.910Z,97039.00
2023-05-08T00:21:24.636Z,97035.78
2023-05-08T00:31:23.990Z,97037.38
2023-05-08T00:36:15.895Z,97029.63
2023-05-08T00:41:07.668Z,97041.75
2023-05-08T00:46:01.737Z,97029.84
2023-05-08T00:50:55.227Z,97036.00
2023-05-08T00:55:48.789Z,97030.78
2023-05-08T01:00:43.790Z,97028.16
2023-05-08T01:05:36.578Z,97022.94
2023-05-08T01:10:45.711Z,97016.09
2023-05-08T01:15:49.226Z,97024.28
2023-05-08T01:20:53.377Z,97027.13
2023-05-08T01:31:46.131Z,97036.25
2023-05-08T01:37:04.309Z,97034.13
2023-05-08T01:42:05.744Z,97035.16
2023-05-08T01:46:59.424Z,97024.38
2023-05-08T01:52:02.987Z,97043.34
2023-05-08T01:56:59.120Z,97045.66
2023-05-08T02:01:58.535Z,97045.72
2023-05-08T02:06:52.569Z,97045.41
2023-05-08T02:11:46.601Z,97045.19
2023-05-08T02:16:42.375Z,97038.63
2023-05-08T02:21:35.833Z,97040.69
2023-05-08T02:26:28.943Z,97045.50
2023-05-08T02:31:22.130Z,97056.22
2023-05-08T02:36:18.444Z,97051.19
2023-05-08T02:41:13.470Z,97050.31
2023-05-08T02:46:40.390Z,97050.75
2023-05-08T02:51:54.911Z,97052.56
2023-05-08T02:57:19.880Z,97058.09
2023-05-08T03:02:27.715Z,97058.69
2023-05-08T03:07:27.521Z,97042.84
2023-05-08T03:12:26.672Z,97044.34
2023-05-08T03:17:22.709Z,97045.47
2023-05-08T03:22:18.101Z,97038.66
2023-05-08T03:27:10.850Z,97039.69
2023-05-08T03:32:03.898Z,97037.06
2023-05-08T03:36:56.210Z,97046.81
2023-05-08T03:41:49.593Z,97044.41
2023-05-08T03:46:42.907Z,97049.88
2023-05-08T03:51:39.388Z,97053.28
2023-05-08T03:56:31.098Z,97050.50
2023-05-08T04:38:22.662Z,97071.94
2023-05-08T05:05:03.241Z,97078.19
2023-05-08T05:09:54.907Z,97068.97
2023-05-08T05:14:46.603Z,97067.75
2023-05-08T05:19:38.294Z,97071.69
2023-05-08T05:24:30.011Z,97084.38
2023-05-08T05:29:21.691Z,97084.16
2023-05-08T06:00:28.806Z,97110.78
2023-05-08T06:05:20.886Z,97113.00
2023-05-08T06:10:13.169Z,97113.00
2023-05-08T06:35:32.437Z,97122.41
2023-05-08T06:40:24.186Z,97120.69
2023-05-08T07:42:01.556Z,97133.03
2023-05-08T07:46:53.334Z,97137.19
2023-05-08T08:43:16.762Z,97139.88
2023-05-08T11:22:38.836Z,97114.13
2023-05-08T11:33:11.761Z,97116.31
2023-05-08T12:20:59.353Z,97107.00
2023-05-08T12:26:04.297Z,97105.88
2023-05-08T12:41:12.868Z,97103.53
2023-05-08T13:38:37.182Z,97102.78
2023-05-08T14:24:37.535Z,97107.78
2023-05-08T14:34:41.497Z,97089.50
2023-05-08T16:33:02.729Z,97089.31
2023-05-08T16:53:18.169Z,97098.47
2023-05-08T17:18:51.671Z,97111.28
2023-05-08T17:39:06.926Z,97118.25
2023-05-08T17:59:20.445Z,97131.78
2023-05-08T18:19:39.836Z,97121.53
2023-05-08T18:51:21.467Z,97166.00
2023-05-08T18:56:15.857Z,97156.63
2023-05-08T19:11:22.719Z,97162.13
2023-05-08T19:21:21.226Z,97168.47
2023-05-08T19:26:15.166Z,97156.19
2023-05-08T19:46:47.176Z,97152.22
2023-05-08T19:51:40.728Z,97159.91
2023-05-08T19:56:33.488Z,97153.69
2023-05-08T20:01:25.254Z,97145.88
2023-05-08T20:06:19.244Z,97150.63
2023-05-08T20:11:15.457Z,97145.19
2023-05-08T20:16:11.510Z,97146.41
2023-05-08T20:21:05.472Z,97144.53
2023-05-08T20:26:00.168Z,97137.56
2023-05-08T20:30:52.832Z,97138.56
2023-05-08T20:51:11.264Z,97136.44
2023-05-08T20:56:17.250Z,97124.81
2023-05-08T21:01:11.470Z,97124.75
2023-05-08T21:11:10.264Z,97121.97
2023-05-08T21:21:17.170Z,97109.63
2023-05-08T21:31:16.447Z,97093.19
2023-05-08T21:36:09.807Z,97080.72
2023-05-08T21:41:11.133Z,97085.78
2023-05-08T21:46:07.897Z,97084.22
2023-05-08T21:51:05.822Z,97082.00
2023-05-08T22:01:05.368Z,97073.03
2023-05-08T22:05:57.793Z,97066.34
2023-05-08T22:10:52.345Z,97061.22
2023-05-08T22:15:47.407Z,97069.09
2023-05-08T22:20:39.341Z,97064.06
2023-05-08T22:30:36.978Z,97066.25
2023-05-08T22:35:28.853Z,97063.63
2023-05-08T22:40:22.076Z,97062.22
2023-05-08T22:45:15.033Z,97052.94
2023-05-08T22:50:09.072Z,97047.91
2023-05-08T23:00:14.767Z,97034.69
2023-05-08T23:05:08.396Z,97026.03
2023-05-08T23:36:33.965Z,96978.53
2023-05-08T23:41:26.125Z,96970.50
2023-05-08T23:46:17.833Z,96953.53
2023-05-08T23:51:09.608Z,96944.53
2023-05-08T23:56:01.364Z,96948.16
